Weather at Rolla Municipal Airport

Public forecast

Using degrees Fahrenheit for public forecast. Weather courtesy of forecast.io.

Current aviation weather report (METAR) for Rolla Municipal Airport

Retrieved 2021/01/16 19:35 UTC (24 minutes ago):

K06D 161935Z AUTO 23007KT 10SM SCT075 M04/M05 A2978 RMK AO2

Closest aviation forecast (TAF) to Rolla Municipal Airport

Closest forecast is Devils Lake Regional Airport, 54.2 nm (100.4 km) SSE. Retrieved 2021/01/16 18:36 UTC (1 hour ago):

TAF KDVL 161734Z 1618/1718 25010KT P6SM BKN007 FM161900 26011KT P6SM SCT012 FM170300 31013KT P6SM BKN030 FM171100 30012KT P6SM -SN BKN007